createdAt,value
2022-12-25T00:01:42.833Z,6.54
2022-12-25T00:04:09.947Z,6.55
2022-12-25T00:06:37.408Z,6.43
2022-12-25T00:09:04.847Z,6.39
2022-12-25T00:11:31.926Z,6.32
2022-12-25T00:13:58.967Z,6.23
2022-12-25T00:16:27.675Z,6.15
2022-12-25T00:18:56.963Z,6.00
2022-12-25T00:21:25.200Z,5.96
2022-12-25T00:23:58.184Z,5.85
2022-12-25T00:26:27.392Z,5.65
2022-12-25T00:28:56.869Z,5.65
2022-12-25T00:31:25.640Z,5.53
2022-12-25T00:33:52.931Z,5.49
2022-12-25T00:36:25.037Z,5.46
2022-12-25T00:38:52.158Z,5.39
2022-12-25T00:41:42.714Z,5.34
2022-12-25T00:44:13.771Z,5.27
2022-12-25T00:46:42.633Z,5.27
2022-12-25T00:49:11.885Z,5.19
2022-12-25T00:51:39.168Z,5.10
2022-12-25T00:54:06.407Z,5.03
2022-12-25T00:56:33.874Z,5.01
2022-12-25T00:59:01.081Z,4.98
2022-12-25T01:01:28.260Z,4.97
2022-12-25T01:03:55.965Z,4.75
2022-12-25T01:06:23.076Z,4.68
2022-12-25T01:09:08.706Z,4.67
2022-12-25T01:11:36.092Z,4.77
2022-12-25T01:14:03.793Z,4.77
2022-12-25T01:16:30.946Z,4.68
2022-12-25T01:18:58.190Z,4.68
2022-12-25T01:21:25.604Z,4.75
2022-12-25T01:23:53.725Z,4.64
2022-12-25T01:26:24.608Z,4.65
2022-12-25T01:28:53.088Z,4.76
2022-12-25T01:31:24.411Z,4.66
2022-12-25T01:33:52.210Z,4.56
2022-12-25T01:36:26.032Z,4.49
2022-12-25T01:38:54.273Z,4.42
2022-12-25T01:41:25.165Z,4.28
2022-12-25T01:44:37.901Z,4.27
2022-12-25T01:47:07.356Z,4.21
2022-12-25T01:49:38.940Z,4.28
2022-12-25T01:52:23.852Z,4.36
2022-12-25T01:55:06.150Z,4.26
2022-12-25T01:57:37.407Z,4.11
2022-12-25T02:00:08.588Z,3.99
2022-12-25T02:02:36.816Z,3.89
2022-12-25T02:05:31.822Z,3.74
2022-12-25T02:08:08.601Z,3.39
2022-12-25T02:10:36.120Z,3.35
2022-12-25T02:13:03.739Z,3.34
2022-12-25T02:16:22.696Z,3.30
2022-12-25T02:19:08.908Z,3.28
2022-12-25T02:22:23.064Z,3.21
2022-12-25T02:25:44.216Z,3.31
2022-12-25T02:28:32.448Z,3.22
2022-12-25T02:31:13.114Z,3.24
2022-12-25T02:34:28.145Z,3.04
2022-12-25T02:37:23.104Z,3.16
2022-12-25T02:40:11.799Z,3.18
2022-12-25T02:43:27.143Z,3.17
2022-12-25T02:46:28.022Z,3.06
2022-12-25T02:49:20.204Z,3.06
2022-12-25T02:52:20.794Z,3.10
2022-12-25T02:55:16.410Z,2.89
2022-12-25T02:58:09.696Z,2.88
2022-12-25T03:01:03.300Z,2.95
2022-12-25T03:03:55.454Z,2.83
2022-12-25T03:06:44.890Z,2.68
2022-12-25T03:09:43.100Z,2.34
2022-12-25T03:12:50.594Z,2.34
2022-12-25T03:15:38.355Z,2.55
2022-12-25T03:18:14.414Z,2.66
2022-12-25T03:21:00.600Z,2.51
2022-12-25T03:23:52.561Z,2.45
2022-12-25T03:26:38.664Z,2.49
2022-12-25T03:29:06.029Z,2.38
2022-12-25T03:31:53.515Z,2.31
2022-12-25T03:35:11.810Z,2.30
2022-12-25T03:38:33.990Z,2.34
2022-12-25T03:41:33.062Z,2.33
2022-12-25T03:44:41.201Z,2.37
2022-12-25T03:47:35.243Z,2.47
2022-12-25T03:50:44.492Z,2.48
2022-12-25T03:53:42.806Z,2.20
2022-12-25T03:56:29.691Z,1.80
2022-12-25T03:59:23.093Z,1.87
2022-12-25T04:02:10.826Z,1.86
2022-12-25T04:04:56.778Z,1.82
2022-12-25T04:07:42.707Z,1.83
2022-12-25T04:10:29.451Z,1.87
2022-12-25T04:13:15.106Z,1.69
2022-12-25T04:16:00.877Z,1.53
2022-12-25T04:18:46.616Z,1.69
2022-12-25T04:21:32.286Z,1.76
2022-12-25T04:24:18.164Z,1.67
2022-12-25T04:27:03.860Z,1.77
2022-12-25T04:29:49.567Z,1.93
2022-12-25T04:32:35.302Z,1.78
2022-12-25T04:35:21.021Z,1.51
2022-12-25T04:37:48.059Z,1.27
2022-12-25T04:40:15.344Z,1.03
2022-12-25T04:42:42.505Z,0.90
2022-12-25T04:45:10.896Z,1.04
2022-12-25T04:47:38.151Z,1.03
2022-12-25T04:50:06.150Z,1.27
2022-12-25T04:52:41.737Z,1.34
2022-12-25T04:55:11.659Z,1.50
2022-12-25T04:57:39.068Z,1.29
2022-12-25T05:00:07.788Z,0.89
2022-12-25T05:02:35.232Z,0.90
2022-12-25T05:05:02.505Z,0.80
2022-12-25T05:07:29.654Z,0.59
2022-12-25T05:09:56.802Z,0.45
2022-12-25T05:12:24.114Z,0.34
2022-12-25T05:14:51.180Z,0.41
2022-12-25T05:17:18.279Z,0.52
2022-12-25T05:19:45.747Z,0.75
2022-12-25T05:22:12.892Z,0.91
2022-12-25T05:24:39.916Z,0.92
2022-12-25T05:27:07.117Z,1.05
2022-12-25T05:29:34.203Z,1.11
2022-12-25T05:32:01.586Z,0.85
2022-12-25T05:34:28.693Z,0.62
2022-12-25T05:36:56.618Z,0.50
2022-12-25T05:39:24.231Z,0.52
2022-12-25T05:41:51.488Z,0.43
2022-12-25T05:44:18.531Z,0.42
2022-12-25T05:46:45.775Z,0.48
2022-12-25T05:49:12.942Z,0.58
2022-12-25T05:51:40.127Z,0.71
2022-12-25T05:54:07.207Z,0.76
2022-12-25T05:56:34.374Z,0.79
2022-12-25T05:59:01.462Z,0.67
2022-12-25T06:01:29.478Z,0.48
2022-12-25T06:03:57.630Z,0.29
2022-12-25T06:06:25.329Z,0.21
2022-12-25T06:08:55.196Z,0.10
2022-12-25T06:11:22.768Z,0.16
2022-12-25T06:13:53.669Z,0.12
2022-12-25T06:16:21.465Z,0.11
2022-12-25T06:18:52.272Z,0.13
2022-12-25T06:21:19.570Z,0.07
2022-12-25T06:23:46.851Z,0.05
2022-12-25T06:26:19.766Z,-0.01
2022-12-25T06:28:47.450Z,0.00
2022-12-25T06:31:20.240Z,0.03
2022-12-25T06:33:48.162Z,0.11
2022-12-25T06:36:23.689Z,0.08
2022-12-25T06:38:51.889Z,0.05
2022-12-25T06:41:26.013Z,-0.06
2022-12-25T06:44:00.811Z,-0.15
2022-12-25T06:46:30.691Z,-0.04
2022-12-25T06:49:00.635Z,0.04
2022-12-25T06:51:32.110Z,0.11
2022-12-25T06:54:03.700Z,0.15
2022-12-25T06:56:33.383Z,0.09
2022-12-25T06:59:09.754Z,0.03
2022-12-25T07:01:56.311Z,0.11
2022-12-25T07:04:40.201Z,0.20
2022-12-25T07:07:09.794Z,0.16
2022-12-25T07:09:38.861Z,0.38
2022-12-25T07:12:23.718Z,0.41
2022-12-25T07:14:55.066Z,0.19
2022-12-25T07:17:24.086Z,0.14
2022-12-25T07:19:51.252Z,0.11
2022-12-25T07:22:18.495Z,0.10
2022-12-25T07:24:45.648Z,0.29
2022-12-25T07:27:13.238Z,0.22
2022-12-25T07:29:40.315Z,0.16
2022-12-25T07:32:07.477Z,0.25
2022-12-25T07:34:34.564Z,0.35
2022-12-25T07:37:01.798Z,0.49
2022-12-25T07:39:28.976Z,0.59
2022-12-25T07:41:56.087Z,0.87
2022-12-25T07:44:23.164Z,1.01
2022-12-25T07:46:50.304Z,0.93
2022-12-25T07:49:17.413Z,0.79
2022-12-25T07:51:44.595Z,0.77
2022-12-25T07:54:11.795Z,0.65
2022-12-25T07:56:38.898Z,0.90
2022-12-25T07:59:05.956Z,0.89
2022-12-25T08:01:33.184Z,0.88
2022-12-25T08:04:02.718Z,1.01
2022-12-25T08:06:34.298Z,1.33
2022-12-25T08:09:12.683Z,1.18
2022-12-25T08:11:45.397Z,1.26
2022-12-25T08:14:13.116Z,1.21
2022-12-25T08:16:41.592Z,1.41
2022-12-25T08:19:10.256Z,1.64
2022-12-25T08:21:38.450Z,1.61
2022-12-25T08:24:05.976Z,1.64
2022-12-25T08:26:33.475Z,1.56
2022-12-25T08:29:00.645Z,1.54
2022-12-25T08:31:30.541Z,1.70
2022-12-25T08:34:01.793Z,1.60
2022-12-25T08:36:29.565Z,1.64
2022-12-25T08:39:02.643Z,1.43
2022-12-25T08:41:32.370Z,1.38
2022-12-25T08:43:59.557Z,1.42
2022-12-25T08:46:26.736Z,1.52
2022-12-25T08:48:54.317Z,1.54
2022-12-25T08:51:25.121Z,1.46
2022-12-25T08:53:59.140Z,1.37
2022-12-25T08:56:27.074Z,1.42
2022-12-25T08:58:54.740Z,1.37
2022-12-25T09:01:21.975Z,1.48
2022-12-25T09:03:49.284Z,1.43
2022-12-25T09:06:17.415Z,1.46
2022-12-25T09:08:49.180Z,1.44
2022-12-25T09:11:19.655Z,1.47
2022-12-25T09:13:48.570Z,1.46
2022-12-25T09:16:21.099Z,1.44
2022-12-25T09:18:48.639Z,1.50
2022-12-25T09:21:17.848Z,1.79
2022-12-25T09:23:45.637Z,1.81
2022-12-25T09:26:17.474Z,1.78
2022-12-25T09:28:51.225Z,1.84
2022-12-25T09:31:21.247Z,2.06
2022-12-25T09:33:49.284Z,2.20
2022-12-25T09:36:16.727Z,2.08
2022-12-25T09:38:43.980Z,2.10
2022-12-25T09:41:29.160Z,2.06
2022-12-25T09:44:16.662Z,2.10
2022-12-25T09:47:13.803Z,2.30
2022-12-25T09:50:37.993Z,2.59
2022-12-25T09:53:27.321Z,3.08
2022-12-25T09:56:33.359Z,3.07
2022-12-25T09:59:00.566Z,2.98
2022-12-25T10:01:59.965Z,3.32
2022-12-25T10:05:30.528Z,3.34
2022-12-25T10:08:26.600Z,2.94
2022-12-25T10:11:21.283Z,3.16
2022-12-25T10:14:08.571Z,2.95
2022-12-25T10:17:15.041Z,3.27
2022-12-25T10:20:00.970Z,3.06
2022-12-25T10:22:42.742Z,2.99
2022-12-25T10:25:22.221Z,3.40
2022-12-25T10:28:09.892Z,3.44
2022-12-25T10:30:37.564Z,3.16
2022-12-25T10:33:05.070Z,3.07
2022-12-25T10:35:33.076Z,3.42
2022-12-25T10:38:22.565Z,3.32
2022-12-25T10:41:39.955Z,3.24
2022-12-25T10:44:21.058Z,3.38
2022-12-25T10:46:51.680Z,3.34
2022-12-25T10:49:24.476Z,3.51
2022-12-25T10:51:52.163Z,3.48
2022-12-25T10:54:35.963Z,3.46
2022-12-25T10:57:16.188Z,3.76
2022-12-25T10:59:51.536Z,3.60
2022-12-25T11:02:36.497Z,3.80
2022-12-25T11:05:32.087Z,3.75
2022-12-25T11:08:03.121Z,3.74
2022-12-25T11:10:44.501Z,3.87
2022-12-25T11:13:30.664Z,3.79
2022-12-25T11:16:38.106Z,3.88
2022-12-25T11:19:29.667Z,3.86
2022-12-25T11:22:01.448Z,4.21
2022-12-25T11:24:33.291Z,3.99
2022-12-25T11:27:09.077Z,4.00
2022-12-25T11:29:51.748Z,4.06
2022-12-25T11:32:37.603Z,4.23
2022-12-25T11:35:18.530Z,4.25
2022-12-25T11:37:52.630Z,4.22
2022-12-25T11:40:49.940Z,4.50
2022-12-25T11:43:46.720Z,4.45
2022-12-25T11:46:45.919Z,4.35
2022-12-25T11:49:19.536Z,4.58
2022-12-25T11:51:51.926Z,4.61
2022-12-25T11:54:41.893Z,4.46
2022-12-25T11:57:11.641Z,4.45
2022-12-25T11:59:56.428Z,4.37
2022-12-25T12:02:36.318Z,4.47
2022-12-25T12:05:46.229Z,4.36
2022-12-25T12:08:14.356Z,4.51
2022-12-25T12:11:15.946Z,4.53
2022-12-25T12:14:20.293Z,4.43
2022-12-25T12:16:47.428Z,4.56
2022-12-25T12:19:31.619Z,4.61
2022-12-25T12:22:04.819Z,4.52
2022-12-25T12:24:42.658Z,4.65
2022-12-25T12:27:39.210Z,4.66
2022-12-25T12:30:23.242Z,4.86
2022-12-25T12:32:58.616Z,4.76
2022-12-25T12:35:36.512Z,4.71
2022-12-25T12:38:15.499Z,4.62
2022-12-25T12:41:07.150Z,4.81
2022-12-25T12:44:05.119Z,4.78
2022-12-25T12:46:56.924Z,4.79
2022-12-25T12:49:27.830Z,4.90
2022-12-25T12:52:42.008Z,4.99
2022-12-25T12:55:15.032Z,4.89
2022-12-25T12:57:42.830Z,4.86
2022-12-25T13:00:22.953Z,4.94
2022-12-25T13:03:32.550Z,4.92
2022-12-25T13:06:29.947Z,4.85
2022-12-25T13:09:52.945Z,4.96
2022-12-25T13:12:22.196Z,4.91
2022-12-25T13:14:50.040Z,5.06
2022-12-25T13:17:24.802Z,5.08
2022-12-25T13:20:24.676Z,5.08
2022-12-25T13:22:53.143Z,5.01
2022-12-25T13:25:24.730Z,5.02
2022-12-25T13:27:57.734Z,5.00
2022-12-25T13:30:25.968Z,5.04
2022-12-25T13:32:53.470Z,4.98
2022-12-25T13:35:22.806Z,5.02
2022-12-25T13:37:50.109Z,5.10
2022-12-25T13:40:27.462Z,5.06
2022-12-25T13:43:01.771Z,5.05
2022-12-25T13:45:31.532Z,5.01
2022-12-25T13:48:20.824Z,4.88
2022-12-25T13:50:59.086Z,5.08
2022-12-25T13:53:27.640Z,4.96
2022-12-25T13:55:57.387Z,5.00
2022-12-25T13:58:34.961Z,4.99
2022-12-25T14:01:03.823Z,4.91
2022-12-25T14:03:42.887Z,4.89
2022-12-25T14:06:30.982Z,4.96
2022-12-25T14:08:59.585Z,4.97
2022-12-25T14:11:29.845Z,5.00
2022-12-25T14:14:14.907Z,4.97
2022-12-25T14:16:44.802Z,4.96
2022-12-25T14:19:32.985Z,4.91
2022-12-25T14:22:22.625Z,4.96
2022-12-25T14:24:49.757Z,5.06
2022-12-25T14:27:28.881Z,5.03
2022-12-25T14:29:59.523Z,4.97
2022-12-25T14:32:38.694Z,5.00
2022-12-25T14:35:06.583Z,4.98
2022-12-25T14:37:34.247Z,5.02
2022-12-25T14:40:45.429Z,5.04
2022-12-25T14:43:26.591Z,5.06
2022-12-25T14:46:08.073Z,5.03
2022-12-25T14:48:35.303Z,4.97
2022-12-25T14:51:17.280Z,4.98
2022-12-25T14:53:55.355Z,4.94
2022-12-25T14:56:26.177Z,4.82
2022-12-25T14:58:58.044Z,4.81
2022-12-25T15:01:41.709Z,4.83
2022-12-25T15:04:11.925Z,4.88
2022-12-25T15:07:11.297Z,4.79
2022-12-25T15:09:40.153Z,4.95
2022-12-25T15:12:08.431Z,4.91
2022-12-25T15:14:38.359Z,5.02
2022-12-25T15:17:05.694Z,4.89
2022-12-25T15:19:38.798Z,4.89
2022-12-25T15:22:06.432Z,5.08
2022-12-25T15:24:33.684Z,5.16
2022-12-25T15:27:01.094Z,5.06
2022-12-25T15:32:24.277Z,5.30
2022-12-25T15:34:51.455Z,5.21
2022-12-25T15:37:19.535Z,5.23
2022-12-25T15:39:47.067Z,5.18
2022-12-25T15:42:21.536Z,5.25
2022-12-25T15:44:48.905Z,5.36
2022-12-25T15:47:20.238Z,5.22
2022-12-25T15:49:47.620Z,5.38
2022-12-25T15:52:17.127Z,5.42
2022-12-25T15:54:44.571Z,5.44
2022-12-25T15:57:21.909Z,5.17
2022-12-25T15:59:49.006Z,5.39
2022-12-25T16:02:20.720Z,5.39
2022-12-25T16:04:48.908Z,5.41
2022-12-25T16:07:20.918Z,5.45
2022-12-25T16:09:48.120Z,5.51
2022-12-25T16:12:15.421Z,5.35
2022-12-25T16:14:42.538Z,5.48
2022-12-25T16:17:15.422Z,5.60
2022-12-25T16:19:45.213Z,5.56
2022-12-25T16:22:18.458Z,5.57
2022-12-25T16:24:45.525Z,5.59
2022-12-25T16:27:12.629Z,5.59
2022-12-25T16:29:39.679Z,5.79
2022-12-25T16:32:06.750Z,5.70
2022-12-25T16:34:33.902Z,5.61
2022-12-25T16:37:00.958Z,5.70
2022-12-25T16:39:28.475Z,5.71
2022-12-25T16:41:55.564Z,5.75
2022-12-25T16:44:22.708Z,5.72
2022-12-25T16:46:49.778Z,5.79
2022-12-25T16:49:19.738Z,5.87
2022-12-25T16:51:46.823Z,5.78
2022-12-25T16:54:14.395Z,5.74
2022-12-25T16:56:41.522Z,5.92
2022-12-25T16:59:08.991Z,5.87
2022-12-25T17:01:37.914Z,5.64
2022-12-25T17:04:05.321Z,5.91
2022-12-25T17:06:32.707Z,5.79
2022-12-25T17:09:02.402Z,5.82
2022-12-25T17:11:30.866Z,5.88
2022-12-25T17:14:02.582Z,5.97
2022-12-25T17:16:36.406Z,5.92
2022-12-25T17:19:17.834Z,6.05
2022-12-25T17:21:44.943Z,6.09
2022-12-25T17:24:12.313Z,5.96
2022-12-25T17:26:41.418Z,6.09
2022-12-25T17:29:09.225Z,5.87
2022-12-25T17:31:37.765Z,6.03
2022-12-25T17:34:06.312Z,6.08
2022-12-25T17:36:33.600Z,6.11
2022-12-25T17:39:03.527Z,6.14
2022-12-25T17:41:30.985Z,6.14
2022-12-25T17:43:58.286Z,6.01
2022-12-25T17:46:29.714Z,6.11
2022-12-25T17:49:00.983Z,6.06
2022-12-25T17:51:30.909Z,6.22
2022-12-25T17:54:03.197Z,6.08
2022-12-25T17:56:31.864Z,6.20
2022-12-25T17:59:06.477Z,6.04
2022-12-25T18:01:35.296Z,6.10
2022-12-25T18:04:03.241Z,6.11
2022-12-25T18:06:30.416Z,6.18
2022-12-25T18:08:58.710Z,6.20
2022-12-25T18:11:32.648Z,6.30
2022-12-25T18:17:40.173Z,6.18
2022-12-25T18:20:08.736Z,6.30
2022-12-25T18:22:36.314Z,6.22
2022-12-25T18:25:04.145Z,6.30
2022-12-25T18:27:31.271Z,6.33
2022-12-25T18:29:58.412Z,6.34
2022-12-25T18:32:28.227Z,6.40
2022-12-25T18:34:56.098Z,6.30
2022-12-25T18:37:23.243Z,6.41
2022-12-25T18:39:50.366Z,6.46
2022-12-25T18:42:36.121Z,6.35
2022-12-25T18:45:03.608Z,6.39
2022-12-25T18:47:30.740Z,6.48
2022-12-25T18:49:57.952Z,6.56
2022-12-25T18:52:50.372Z,6.47
2022-12-25T18:55:12.291Z,6.48
2022-12-25T18:57:40.861Z,6.56
2022-12-25T19:00:09.388Z,6.54
2022-12-25T19:02:36.610Z,6.64
2022-12-25T19:05:05.789Z,6.43
2022-12-25T19:07:33.041Z,6.26
2022-12-25T19:10:00.135Z,6.47
2022-12-25T19:12:27.226Z,6.42
2022-12-25T19:14:54.289Z,6.55
2022-12-25T19:17:24.329Z,6.65
2022-12-25T19:19:53.754Z,6.65
2022-12-25T19:22:20.827Z,6.63
2022-12-25T19:24:47.941Z,6.74
2022-12-25T19:27:15.035Z,6.61
2022-12-25T19:29:42.107Z,6.62
2022-12-25T19:32:09.286Z,6.67
2022-12-25T19:34:36.635Z,6.60
2022-12-25T19:37:04.262Z,6.70
2022-12-25T19:39:31.380Z,6.75
2022-12-25T19:41:58.525Z,6.76
2022-12-25T19:44:25.772Z,6.74
2022-12-25T19:46:53.459Z,6.75
2022-12-25T19:49:20.614Z,6.77
2022-12-25T19:51:48.656Z,6.66
2022-12-25T19:54:19.240Z,6.89
2022-12-25T19:56:48.704Z,6.91
2022-12-25T19:59:16.125Z,6.93
2022-12-25T20:01:43.666Z,7.00
2022-12-25T20:04:11.490Z,6.88
2022-12-25T20:06:40.685Z,7.06
2022-12-25T20:09:15.338Z,7.03
2022-12-25T20:11:43.531Z,7.09
2022-12-25T20:14:16.451Z,7.16
2022-12-25T20:16:49.660Z,7.28
2022-12-25T20:19:16.788Z,7.22
2022-12-25T20:21:43.860Z,7.12
2022-12-25T20:24:11.360Z,7.24
2022-12-25T20:26:42.869Z,7.31
2022-12-25T20:29:11.534Z,7.31
2022-12-25T20:31:38.585Z,7.33
2022-12-25T20:34:10.945Z,7.42
2022-12-25T20:36:38.466Z,7.39
2022-12-25T20:39:11.858Z,7.37
2022-12-25T20:41:39.758Z,7.42
2022-12-25T20:44:09.887Z,7.53
2022-12-25T20:46:37.537Z,7.57
2022-12-25T20:49:04.996Z,7.58
2022-12-25T20:51:32.689Z,7.37
2022-12-25T20:53:59.712Z,7.54
2022-12-25T20:56:27.488Z,7.60
2022-12-25T20:58:58.445Z,7.68
2022-12-25T21:01:28.336Z,7.60
2022-12-25T21:03:56.937Z,7.69
2022-12-25T21:06:24.780Z,7.65
2022-12-25T21:08:51.934Z,7.58
2022-12-25T21:11:21.171Z,7.64
2022-12-25T21:13:49.044Z,7.65
2022-12-25T21:16:22.119Z,7.72
2022-12-25T21:18:54.163Z,7.73
2022-12-25T21:21:22.170Z,7.82
2022-12-25T21:23:49.580Z,7.75
2022-12-25T21:26:21.720Z,7.84
2022-12-25T21:28:52.551Z,7.76
2022-12-25T21:31:20.928Z,7.93
2022-12-25T21:33:54.951Z,7.63
2022-12-25T21:36:33.560Z,8.02
2022-12-25T21:39:06.288Z,7.98
2022-12-25T21:41:37.064Z,7.88
2022-12-25T21:44:05.148Z,7.92
2022-12-25T21:46:32.406Z,7.88
2022-12-25T21:49:00.125Z,7.93
2022-12-25T21:51:50.948Z,7.83
2022-12-25T21:54:21.699Z,7.91
2022-12-25T21:56:50.627Z,7.89
2022-12-25T21:59:21.586Z,7.94
2022-12-25T22:01:51.230Z,8.00
2022-12-25T22:04:22.390Z,7.92
2022-12-25T22:07:08.376Z,8.00
2022-12-25T22:09:35.712Z,8.02
2022-12-25T22:12:22.349Z,8.00
2022-12-25T22:14:55.221Z,7.95
2022-12-25T22:17:50.812Z,7.96
2022-12-25T22:20:34.549Z,8.08
2022-12-25T22:23:02.540Z,8.11
2022-12-25T22:25:30.064Z,7.97
2022-12-25T22:27:57.995Z,7.97
2022-12-25T22:30:28.482Z,8.03
2022-12-25T22:32:56.223Z,8.01
2022-12-25T22:35:24.366Z,8.04
2022-12-25T22:37:51.472Z,8.14
2022-12-25T22:40:20.713Z,8.09
2022-12-25T22:42:48.333Z,8.05
2022-12-25T22:45:15.633Z,8.21
2022-12-25T22:47:42.945Z,8.21
2022-12-25T22:50:12.172Z,8.20
2022-12-25T22:52:39.422Z,8.24
2022-12-25T22:55:08.860Z,8.20
2022-12-25T22:57:36.177Z,8.23
2022-12-25T23:00:06.334Z,8.35
2022-12-25T23:02:35.059Z,8.25
2022-12-25T23:05:03.277Z,8.40
2022-12-25T23:07:30.321Z,8.39
2022-12-25T23:09:57.360Z,8.49
2022-12-25T23:12:42.969Z,8.38
2022-12-25T23:15:10.948Z,8.45
2022-12-25T23:17:56.790Z,8.48
2022-12-25T23:20:42.287Z,8.47
2022-12-25T23:23:34.921Z,8.56
2022-12-25T23:26:09.303Z,8.57
2022-12-25T23:29:01.165Z,8.53
2022-12-25T23:31:41.134Z,8.54
2022-12-25T23:34:09.809Z,8.54
2022-12-25T23:36:37.052Z,8.43
2022-12-25T23:39:09.745Z,8.52
2022-12-25T23:41:43.606Z,8.56
2022-12-25T23:44:12.834Z,8.65
2022-12-25T23:46:42.065Z,8.63
2022-12-25T23:49:22.863Z,8.64
2022-12-25T23:51:50.009Z,8.66
2022-12-25T23:54:26.794Z,8.65
2022-12-25T23:56:57.160Z,8.65
2022-12-25T23:59:27.479Z,8.68
